Time;durP1;ratioP1;P1;durP2;ratioP2;P2;SDS_P1;SDS_P2;PMS_P1;PMS_P2;Temp;Humidity;BMP_temperature;BMP_pressure;BME280_temperature;BME280_humidity;BME280_pressure;Samples;Min_cycle;Max_cycle;Signal;HPM_P1;HPM_P2
2023/04/30 00:01:37;;;;;;;11.57;10.30;;;;;;;13.66;79.38;99089.56;5033179;28;20161;-70
2023/04/30 00:04:03;;;;;;;14.07;11.35;;;;;;;13.43;79.71;99099.44;5053577;28;20031;-70
2023/04/30 00:06:28;;;;;;;14.23;11.05;;;;;;;12.84;81.99;99098.31;5053616;28;20086;-70
2023/04/30 00:08:54;;;;;;;13.95;12.32;;;;;;;12.65;83.61;99102.63;5053351;28;20029;-69
2023/04/30 00:11:20;;;;;;;15.88;12.57;;;;;;;12.38;84.79;99104.28;5053548;28;20028;-70
2023/04/30 00:13:45;;;;;;;14.90;11.27;;;;;;;12.33;85.45;99102.53;5053462;28;20385;-70
2023/04/30 00:16:10;;;;;;;12.32;11.05;;;;;;;12.62;85.83;99106.97;5037702;28;20170;-70
2023/04/30 00:18:37;;;;;;;16.92;11.63;;;;;;;12.93;83.97;99115.81;5045577;28;20403;-70
2023/04/30 00:21:02;;;;;;;16.13;11.60;;;;;;;13.07;82.67;99129.41;5052694;28;20036;-70
2023/04/30 00:23:28;;;;;;;12.50;10.48;;;;;;;13.15;83.15;99127.59;5053196;28;20020;-69
2023/04/30 00:25:53;;;;;;;21.33;11.05;;;;;;;13.05;84.99;99123.34;5052942;28;20029;-70
2023/04/30 00:28:19;;;;;;;14.88;11.30;;;;;;;12.99;81.87;99116.38;5052671;28;20507;-69
2023/04/30 00:30:44;;;;;;;19.42;11.82;;;;;;;13.06;83.13;99120.19;5053168;28;20345;-70
2023/04/30 00:33:10;;;;;;;14.38;11.52;;;;;;;13.17;83.43;99126.06;5049501;28;20101;-70
2023/04/30 00:35:35;;;;;;;13.10;11.63;;;;;;;13.44;81.76;99128.38;5033651;28;20028;-70
2023/04/30 00:38:01;;;;;;;15.35;11.48;;;;;;;13.46;80.87;99124.03;5033896;28;20040;-70
2023/04/30 00:40:26;;;;;;;14.35;11.85;;;;;;;13.60;80.87;99115.13;5034029;28;20021;-70
2023/04/30 00:42:54;;;;;;;15.00;11.55;;;;;;;13.71;80.35;99126.63;5031547;28;20037;-70
2023/04/30 00:45:21;;;;;;;14.45;11.70;;;;;;;13.83;79.13;99127.72;5032972;28;20451;-70
2023/04/30 00:47:47;;;;;;;12.80;10.50;;;;;;;13.84;78.23;99116.09;5046565;28;20063;-70
2023/04/30 00:50:15;;;;;;;13.90;10.30;;;;;;;13.97;76.44;99107.53;5051400;28;20487;-70
2023/04/30 00:52:41;;;;;;;15.77;9.93;;;;;;;14.09;76.03;99107.41;5033405;28;20028;-70
2023/04/30 00:55:08;;;;;;;12.27;10.07;;;;;;;14.17;76.60;99114.81;5032789;28;20017;-69
2023/04/30 00:57:35;;;;;;;18.50;11.05;;;;;;;14.22;76.56;99116.53;5032563;28;20021;-69
2023/04/30 01:00:01;;;;;;;13.75;10.43;;;;;;;14.11;76.97;99116.28;5032542;28;20029;-70
2023/04/30 01:02:26;;;;;;;14.55;11.07;;;;;;;14.08;76.88;99105.78;5032561;28;20025;-70
2023/04/30 01:04:53;;;;;;;14.98;10.75;;;;;;;14.08;76.81;99102.97;5032559;28;20463;-70
2023/04/30 01:07:18;;;;;;;16.02;11.00;;;;;;;14.14;76.57;99104.31;5031976;28;20029;-70
2023/04/30 01:09:44;;;;;;;18.38;10.38;;;;;;;14.14;76.41;99103.50;5044941;28;20108;-70
2023/04/30 01:12:22;;;;;;;14.98;11.18;;;;;;;14.09;77.41;99096.16;5051035;28;20451;-70
2023/04/30 01:15:10;;;;;;;18.95;11.57;;;;;;;14.12;77.87;99101.06;5052460;28;20107;-69
2023/04/30 01:17:56;;;;;;;18.40;10.93;;;;;;;13.87;78.61;99106.91;5052293;28;20069;-70
2023/04/30 01:20:23;;;;;;;14.10;11.20;;;;;;;13.76;79.96;99106.66;5050904;28;20059;-70
2023/04/30 01:23:02;;;;;;;12.60;11.30;;;;;;;13.73;79.72;99103.78;5043075;28;20404;-70
2023/04/30 01:25:39;;;;;;;15.30;12.75;;;;;;;13.87;79.07;99104.09;5033740;28;20558;-70
2023/04/30 01:28:08;;;;;;;16.75;11.35;;;;;;;13.66;79.64;99114.84;5051765;28;20036;-70
2023/04/30 01:30:35;;;;;;;16.17;11.10;;;;;;;13.76;79.42;99101.06;5051601;28;20017;-70
2023/04/30 01:33:01;;;;;;;16.45;11.93;;;;;;;13.78;79.39;99109.13;5050685;28;20025;-70
2023/04/30 01:35:52;;;;;;;15.50;10.02;;;;;;;13.79;78.87;99104.31;5051247;28;20029;-70
2023/04/30 01:38:20;;;;;;;13.35;11.23;;;;;;;13.78;78.78;99106.31;5050148;28;20029;-69
2023/04/30 01:40:48;;;;;;;15.18;10.57;;;;;;;13.92;77.83;99102.22;5051788;28;20454;-70
2023/04/30 01:43:22;;;;;;;14.82;11.05;;;;;;;14.07;77.25;99092.09;5050196;28;20049;-70
2023/04/30 01:46:26;;;;;;;18.45;11.00;;;;;;;14.14;76.72;99083.81;5052011;28;20053;-70
2023/04/30 01:48:55;;;;;;;16.52;10.65;;;;;;;14.03;76.81;99097.63;5051364;28;20083;-70
2023/04/30 01:51:40;;;;;;;11.85;10.65;;;;;;;13.96;77.46;99094.66;5049814;28;20028;-69
2023/04/30 01:54:19;;;;;;;14.43;11.48;;;;;;;14.07;77.55;99090.09;5050109;28;20021;-70
2023/04/30 01:57:11;;;;;;;19.80;11.52;;;;;;;14.14;77.41;99081.81;5049417;28;20025;-70
2023/04/30 01:59:38;;;;;;;14.40;11.80;;;;;;;14.19;77.16;99089.16;5042819;28;20353;-69
2023/04/30 02:02:05;;;;;;;14.30;11.80;;;;;;;14.24;76.61;99090.81;5051796;28;20027;-69
2023/04/30 02:04:31;;;;;;;13.32;11.93;;;;;;;14.22;77.25;99091.22;5045347;28;20503;-70
2023/04/30 02:06:57;;;;;;;14.18;11.65;;;;;;;14.18;77.55;99093.94;5029762;28;20031;-70
2023/04/30 02:09:23;;;;;;;20.75;13.20;;;;;;;14.04;78.81;99093.66;5035986;28;20069;-69
2023/04/30 02:11:49;;;;;;;16.80;12.55;;;;;;;14.04;78.87;99088.81;5048848;28;20024;-69
2023/04/30 02:14:14;;;;;;;17.60;13.40;;;;;;;14.13;78.16;99091.44;5031524;28;20488;-70
2023/04/30 02:16:40;;;;;;;22.23;14.13;;;;;;;14.17;78.03;99086.69;5031018;28;20080;-70
2023/04/30 02:19:05;;;;;;;21.20;14.07;;;;;;;13.96;78.50;99089.84;5031474;28;20021;-69
2023/04/30 02:21:31;;;;;;;16.73;14.02;;;;;;;13.85;79.24;99103.66;5031228;28;20037;-69
2023/04/30 02:23:56;;;;;;;22.10;14.68;;;;;;;14.03;78.66;99095.63;5042906;28;20111;-69
2023/04/30 02:26:22;;;;;;;21.33;15.23;;;;;;;14.07;78.42;99086.47;5031189;28;20025;-70
2023/04/30 02:28:47;;;;;;;27.10;16.08;;;;;;;14.06;78.41;99085.66;5046021;28;20503;-70
2023/04/30 02:31:13;;;;;;;25.48;16.80;;;;;;;14.07;78.23;99101.34;5031128;28;20028;-69
2023/04/30 02:33:38;;;;;;;21.83;15.95;;;;;;;14.12;77.78;99088.97;5037170;28;20108;-70
2023/04/30 02:36:04;;;;;;;19.75;14.90;;;;;;;14.13;77.00;99085.00;5050980;28;20021;-69
2023/04/30 02:38:29;;;;;;;21.10;14.45;;;;;;;14.11;77.05;99081.72;5049380;28;20029;-69
2023/04/30 02:40:55;;;;;;;20.10;14.55;;;;;;;14.12;77.18;99084.19;5050979;28;20436;-70
2023/04/30 02:43:20;;;;;;;20.63;15.70;;;;;;;14.14;77.00;99083.81;5053068;28;20053;-69
2023/04/30 02:45:46;;;;;;;21.30;14.38;;;;;;;14.14;76.81;99086.63;5054713;28;20554;-69
2023/04/30 02:48:12;;;;;;;18.80;14.20;;;;;;;13.54;80.69;99096.94;5055000;28;20028;-69
2023/04/30 02:50:37;;;;;;;25.05;15.48;;;;;;;13.61;81.00;99096.28;5053594;28;20033;-69
2023/04/30 02:53:03;;;;;;;18.77;14.15;;;;;;;13.81;79.70;99096.31;5052853;28;20048;-69
2023/04/30 02:55:28;;;;;;;18.90;14.32;;;;;;;13.83;79.76;99108.03;5053540;28;20038;-70
2023/04/30 02:57:55;;;;;;;20.48;14.70;;;;;;;13.61;79.59;99099.88;5054612;28;20388;-69
2023/04/30 03:00:20;;;;;;;16.98;13.30;;;;;;;13.82;78.53;99104.41;5054724;28;20492;-69
2023/04/30 03:02:46;;;;;;;14.65;12.82;;;;;;;13.76;78.66;99095.44;5054530;28;20028;-70
2023/04/30 03:05:12;;;;;;;17.65;13.18;;;;;;;13.59;78.77;99093.03;5053352;28;20083;-69
2023/04/30 03:07:37;;;;;;;17.27;13.95;;;;;;;12.88;82.25;99093.59;5040321;28;20072;-69
2023/04/30 03:10:03;;;;;;;19.13;13.55;;;;;;;13.10;81.97;99108.22;5034877;28;20488;-70
2023/04/30 03:12:28;;;;;;;20.27;13.75;;;;;;;13.16;81.19;99107.59;5034739;28;20512;-70
2023/04/30 03:14:54;;;;;;;21.42;15.27;;;;;;;13.24;81.05;99107.78;5034648;28;20024;-70
2023/04/30 03:17:19;;;;;;;22.30;14.48;;;;;;;12.70;83.30;99110.78;5051140;28;20032;-69
2023/04/30 03:19:45;;;;;;;23.55;14.80;;;;;;;12.45;85.96;99108.09;5054528;28;20047;-69
2023/04/30 03:22:10;;;;;;;18.83;14.25;;;;;;;12.56;86.26;99101.97;5044332;28;20036;-70
2023/04/30 03:24:35;;;;;;;16.73;13.40;;;;;;;12.76;85.37;99106.53;5039786;28;20028;-69
2023/04/30 03:27:01;;;;;;;17.45;13.32;;;;;;;12.85;84.82;99112.00;5034189;28;20029;-70
2023/04/30 03:29:26;;;;;;;16.13;13.13;;;;;;;12.30;87.02;99112.47;5033149;28;20022;-69
2023/04/30 03:31:52;;;;;;;20.63;13.85;;;;;;;12.16;88.72;99114.84;5034310;28;20029;-69
2023/04/30 03:34:17;;;;;;;20.05;14.50;;;;;;;11.99;90.86;99116.69;5034369;28;20496;-69
2023/04/30 03:36:43;;;;;;;20.60;14.32;;;;;;;11.90;92.28;99122.44;5033216;28;20454;-70
2023/04/30 03:39:08;;;;;;;17.83;13.30;;;;;;;11.97;92.15;99126.66;5040043;28;20032;-69
2023/04/30 03:41:34;;;;;;;19.92;15.43;;;;;;;11.77;93.89;99127.25;5053973;28;20075;-69
2023/04/30 03:43:59;;;;;;;19.55;15.93;;;;;;;11.78;93.86;99126.09;5053992;28;20052;-69
2023/04/30 03:46:25;;;;;;;24.05;14.70;;;;;;;11.32;95.96;99131.78;5053486;28;20423;-69
2023/04/30 03:48:50;;;;;;;17.90;14.43;;;;;;;11.66;95.74;99124.09;5053863;28;20025;-69
2023/04/30 03:51:19;;;;;;;17.48;13.85;;;;;;;11.59;95.06;99135.09;5050582;28;20040;-70
2023/04/30 03:53:45;;;;;;;23.40;16.42;;;;;;;11.21;96.94;99131.44;5033829;28;20025;-69
2023/04/30 03:56:10;;;;;;;24.48;17.50;;;;;;;11.60;96.02;99128.31;5050461;28;20033;-70
2023/04/30 03:58:36;;;;;;;19.98;14.40;;;;;;;11.69;96.00;99145.00;5053502;28;20025;-69
2023/04/30 04:01:03;;;;;;;19.65;14.93;;;;;;;11.70;95.11;99146.63;5042409;28;20037;-70
2023/04/30 04:03:28;;;;;;;20.08;14.05;;;;;;;11.89;93.87;99150.84;5033593;28;20029;-70
2023/04/30 04:05:54;;;;;;;18.42;13.43;;;;;;;12.03;93.16;99161.69;5033226;28;20057;-69
2023/04/30 04:08:19;;;;;;;18.05;13.60;;;;;;;11.65;93.81;99158.88;5033535;28;20037;-69
2023/04/30 04:10:45;;;;;;;15.40;13.15;;;;;;;11.98;93.34;99167.53;5036550;28;20025;-69
2023/04/30 04:13:10;;;;;;;16.17;13.23;;;;;;;12.31;91.29;99161.75;5053516;28;20028;-69
2023/04/30 04:15:36;;;;;;;14.38;11.52;;;;;;;12.49;90.36;99164.31;5053512;28;20020;-69
2023/04/30 04:18:02;;;;;;;17.30;12.45;;;;;;;12.57;89.24;99168.94;5053276;28;20016;-70
2023/04/30 04:20:28;;;;;;;17.63;12.45;;;;;;;12.64;89.44;99173.94;5051683;28;20024;-69
2023/04/30 04:22:55;;;;;;;16.98;12.45;;;;;;;12.40;90.30;99169.22;5053019;28;20389;-69
2023/04/30 04:25:23;;;;;;;20.10;14.63;;;;;;;12.11;91.96;99177.59;5052167;28;20119;-69
2023/04/30 04:27:49;;;;;;;19.27;15.57;;;;;;;12.09;92.43;99177.13;5034919;28;20029;-69
2023/04/30 04:30:15;;;;;;;25.77;15.90;;;;;;;11.72;94.40;99172.31;5033284;28;20040;-69
2023/04/30 04:32:46;;;;;;;26.77;18.23;;;;;;;11.40;96.95;99179.66;5033517;28;20021;-69
2023/04/30 04:35:16;;;;;;;21.35;16.02;;;;;;;11.19;97.90;99174.94;5050707;28;20037;-69
2023/04/30 04:37:41;;;;;;;24.70;15.63;;;;;;;11.07;99.58;99167.34;5039652;28;20112;-69
2023/04/30 04:40:07;;;;;;;24.73;17.48;;;;;;;11.37;98.71;99167.97;5033691;28;20053;-69
2023/04/30 04:42:33;;;;;;;18.83;15.25;;;;;;;11.47;98.02;99171.50;5033031;28;20326;-69
2023/04/30 04:44:58;;;;;;;13.43;12.00;;;;;;;11.37;97.02;99172.75;5046528;28;20106;-70
2023/04/30 04:47:24;;;;;;;16.25;12.95;;;;;;;11.17;98.89;99180.06;5052711;28;20044;-68
2023/04/30 04:49:50;;;;;;;15.05;12.18;;;;;;;11.35;98.87;99170.31;5051691;28;20522;-70
2023/04/30 04:52:15;;;;;;;15.27;11.20;;;;;;;11.36;98.28;99176.72;5036168;28;20035;-71
2023/04/30 04:54:41;;;;;;;13.85;11.38;;;;;;;11.51;98.99;99175.22;5034277;28;20033;-73
2023/04/30 04:57:06;;;;;;;15.25;11.20;;;;;;;11.57;97.97;99185.03;5032097;28;20479;-72
2023/04/30 04:59:32;;;;;;;20.35;11.48;;;;;;;11.47;98.80;99182.69;5035172;28;20065;-71
2023/04/30 05:01:57;;;;;;;16.05;11.55;;;;;;;11.48;97.53;99179.53;5033575;28;20416;-71
2023/04/30 05:04:23;;;;;;;14.82;11.63;;;;;;;11.42;97.84;99182.91;5036597;28;20029;-72
2023/04/30 05:06:48;;;;;;;14.60;11.68;;;;;;;11.50;97.98;99176.41;5030909;28;20101;-71
2023/04/30 05:09:14;;;;;;;13.45;10.65;;;;;;;11.35;96.07;99184.31;5037297;28;20103;-73
2023/04/30 05:11:40;;;;;;;13.68;10.02;;;;;;;11.53;95.98;99184.09;5041363;28;20499;-72
2023/04/30 05:14:06;;;;;;;11.00;9.30;;;;;;;11.51;95.11;99186.44;5036596;28;20029;-72
2023/04/30 05:16:31;;;;;;;12.60;10.02;;;;;;;11.62;95.89;99179.22;5035990;28;20037;-71
2023/04/30 05:18:57;;;;;;;19.45;11.40;;;;;;;11.63;94.94;99185.59;5034149;28;20134;-71
2023/04/30 05:21:22;;;;;;;13.85;10.20;;;;;;;11.64;94.46;99188.06;5037158;28;20029;-72
2023/04/30 05:23:48;;;;;;;13.38;10.35;;;;;;;11.50;95.65;99182.00;5030898;28;20115;-71
2023/04/30 05:26:13;;;;;;;12.90;10.27;;;;;;;11.61;94.42;99177.56;5031428;28;20022;-71
2023/04/30 05:28:38;;;;;;;15.07;9.85;;;;;;;11.75;91.85;99190.41;5030114;28;20492;-69
2023/04/30 05:31:04;;;;;;;12.50;10.80;;;;;;;11.77;91.74;99190.88;5036373;28;20075;-72
2023/04/30 05:33:29;;;;;;;15.77;11.02;;;;;;;11.73;92.04;99185.16;5030441;28;20018;-71
2023/04/30 05:35:55;;;;;;;16.52;11.75;;;;;;;11.94;90.64;99189.81;5046179;28;20518;-69
2023/04/30 05:38:20;;;;;;;13.98;9.82;;;;;;;11.78;89.23;99198.13;5045922;28;20031;-70
2023/04/30 05:40:46;;;;;;;13.27;10.88;;;;;;;12.13;88.88;99189.25;5044613;28;20025;-71
2023/04/30 05:43:11;;;;;;;15.88;9.93;;;;;;;12.19;88.20;99192.63;5037229;28;20045;-71
2023/04/30 05:45:37;;;;;;;15.20;9.55;;;;;;;12.26;87.27;99192.88;5028728;28;20505;-71
2023/04/30 05:48:03;;;;;;;14.25;9.38;;;;;;;12.19;86.97;99190.66;5043006;28;20024;-70
2023/04/30 05:50:28;;;;;;;13.65;10.32;;;;;;;12.43;87.53;99194.59;5046193;28;20029;-71
2023/04/30 05:52:53;;;;;;;15.27;9.63;;;;;;;12.47;85.52;99191.88;5045365;28;20028;-68
2023/04/30 05:55:19;;;;;;;17.75;10.70;;;;;;;12.48;86.20;99199.94;5030124;28;20021;-71
2023/04/30 05:57:44;;;;;;;13.57;9.25;;;;;;;12.49;85.41;99187.53;5035628;28;20129;-69
2023/04/30 06:00:11;;;;;;;21.52;13.02;;;;;;;12.57;84.95;99202.59;5035535;28;20048;-69
2023/04/30 06:02:36;;;;;;;28.80;15.68;;;;;;;12.47;84.01;99197.47;5030816;28;20033;-67
2023/04/30 06:05:03;;;;;;;29.38;15.65;;;;;;;12.66;84.46;99196.03;5029659;28;20028;-68
2023/04/30 06:07:29;;;;;;;38.55;18.98;;;;;;;12.64;84.31;99188.78;5046680;28;20025;-69
2023/04/30 06:09:55;;;;;;;25.58;12.63;;;;;;;12.98;82.75;99196.94;5039928;28;20492;-68
2023/04/30 06:12:20;;;;;;;13.73;10.43;;;;;;;13.16;83.00;99199.47;5036959;28;20229;-69
2023/04/30 06:14:46;;;;;;;12.27;8.95;;;;;;;12.96;82.63;99199.31;5046201;28;20036;-71
2023/04/30 06:17:12;;;;;;;13.52;9.90;;;;;;;13.21;82.35;99185.13;5035336;28;20014;-69
2023/04/30 06:19:38;;;;;;;13.35;9.30;;;;;;;13.14;82.26;99188.56;5032836;28;20116;-69
2023/04/30 06:22:03;;;;;;;18.40;11.00;;;;;;;13.53;83.82;99187.19;5040148;28;20107;-71
2023/04/30 06:24:29;;;;;;;14.20;8.95;;;;;;;13.95;80.41;99194.25;5047168;28;20033;-70
2023/04/30 06:26:55;;;;;;;11.70;9.20;;;;;;;14.09;79.87;99188.94;5055794;28;20032;-70
2023/04/30 06:29:23;;;;;;;12.80;8.82;;;;;;;14.67;76.51;99190.22;5069711;28;20025;-68
2023/04/30 06:31:51;;;;;;;12.35;8.57;;;;;;;14.99;74.40;99181.66;5057331;28;20051;-70
2023/04/30 06:34:18;;;;;;;14.75;9.27;;;;;;;15.34;72.57;99179.09;5061995;28;20020;-69
2023/04/30 06:36:44;;;;;;;10.95;8.38;;;;;;;15.50;71.36;99185.41;5051054;28;20116;-70
2023/04/30 06:39:09;;;;;;;11.70;8.75;;;;;;;15.61;68.85;99181.97;5048357;28;20131;-70
2023/04/30 06:41:34;;;;;;;11.07;8.02;;;;;;;15.58;69.50;99192.00;5034128;28;20022;-70
2023/04/30 06:44:00;;;;;;;8.52;6.97;;;;;;;15.42;65.92;99189.28;5030878;28;20050;-70
2023/04/30 06:46:25;;;;;;;10.23;8.05;;;;;;;15.28;67.55;99179.38;5042805;28;20021;-70
2023/04/30 06:48:51;;;;;;;12.98;7.63;;;;;;;15.77;66.76;99179.81;5043363;28;20036;-70
2023/04/30 06:51:16;;;;;;;9.48;6.97;;;;;;;16.05;64.04;99177.88;5050828;28;20095;-70
2023/04/30 06:53:42;;;;;;;13.73;7.40;;;;;;;16.23;62.18;99176.16;5039363;28;20020;-72
2023/04/30 06:56:07;;;;;;;14.43;8.65;;;;;;;15.68;64.95;99174.44;5049146;28;20082;-70
2023/04/30 06:58:33;;;;;;;12.15;7.90;;;;;;;15.88;64.45;99167.91;5049439;28;20399;-70
2023/04/30 07:00:58;;;;;;;21.27;10.00;;;;;;;16.25;64.84;99165.28;5039913;28;20542;-67
2023/04/30 07:03:24;;;;;;;9.80;7.88;;;;;;;16.45;63.83;99169.97;5039978;28;20029;-69
2023/04/30 07:05:50;;;;;;;14.10;8.70;;;;;;;16.67;63.34;99169.06;5032039;28;20025;-69
2023/04/30 07:08:16;;;;;;;11.57;8.73;;;;;;;17.04;62.96;99169.53;5041075;28;20025;-69
2023/04/30 07:10:41;;;;;;;9.77;7.47;;;;;;;17.47;61.66;99167.13;5037125;28;20033;-69
2023/04/30 07:13:07;;;;;;;11.45;7.93;;;;;;;17.83;60.94;99170.25;5035535;28;20553;-71
2023/04/30 07:15:32;;;;;;;15.27;7.47;;;;;;;17.97;57.19;99168.75;5034334;28;20091;-69
2023/04/30 07:17:58;;;;;;;9.30;6.88;;;;;;;17.75;56.43;99148.81;5032793;28;20018;-71
2023/04/30 07:20:23;;;;;;;10.45;7.40;;;;;;;18.08;56.89;99166.84;5037260;28;20032;-66
2023/04/30 07:22:49;;;;;;;11.88;7.45;;;;;;;18.09;56.86;99171.28;5051231;28;20051;-67
2023/04/30 07:25:15;;;;;;;10.25;7.97;;;;;;;18.03;57.64;99174.88;5057148;28;20029;-67
2023/04/30 07:27:40;;;;;;;11.73;7.75;;;;;;;18.27;54.91;99170.59;5037221;28;20057;-68
2023/04/30 07:30:08;;;;;;;9.60;6.32;;;;;;;18.42;54.41;99174.34;5059183;28;20090;-68
2023/04/30 07:32:34;;;;;;;9.95;7.40;;;;;;;18.85;53.69;99170.06;5052955;28;20119;-67
2023/04/30 07:35:00;;;;;;;10.00;7.25;;;;;;;18.42;53.22;99165.84;5052627;28;20078;-68
2023/04/30 07:37:25;;;;;;;8.52;6.18;;;;;;;17.88;54.35;99159.81;5054041;28;20071;-68
2023/04/30 07:39:51;;;;;;;9.52;6.30;;;;;;;18.05;54.15;99173.28;5055578;28;20025;-67
2023/04/30 07:42:16;;;;;;;11.93;6.80;;;;;;;17.62;54.77;99170.09;5061082;28;20102;-67
2023/04/30 07:44:42;;;;;;;9.73;6.78;;;;;;;17.38;55.12;99161.00;5034414;28;20045;-67
2023/04/30 07:47:08;;;;;;;9.85;7.30;;;;;;;17.54;55.60;99170.03;5034623;28;20025;-67
2023/04/30 07:49:34;;;;;;;8.13;6.38;;;;;;;18.19;54.14;99168.94;5036420;28;20090;-67
2023/04/30 07:52:00;;;;;;;8.93;7.38;;;;;;;18.80;53.54;99169.25;5033754;28;20037;-67
2023/04/30 07:54:26;;;;;;;15.95;6.93;;;;;;;19.27;52.13;99168.63;5032783;28;20484;-66
2023/04/30 07:56:52;;;;;;;11.32;7.22;;;;;;;19.37;49.69;99167.00;5043161;28;20031;-72
2023/04/30 07:59:17;;;;;;;15.95;6.38;;;;;;;19.43;48.78;99151.22;5047887;28;20108;-69
2023/04/30 08:01:43;;;;;;;55.80;11.48;;;;;;;19.99;49.83;99150.03;5033170;28;20026;-72
2023/04/30 08:04:09;;;;;;;9.50;6.60;;;;;;;20.42;46.99;99149.94;5036958;28;20021;-78
2023/04/30 08:06:34;;;;;;;10.85;6.50;;;;;;;20.43;47.38;99147.91;5049688;28;20381;-74
2023/04/30 08:09:00;;;;;;;6.80;5.70;;;;;;;20.56;46.26;99148.25;5040445;28;20029;-71
2023/04/30 08:11:26;;;;;;;9.25;5.78;;;;;;;20.28;45.42;99147.13;5053475;28;20032;-74
2023/04/30 08:13:51;;;;;;;7.32;5.28;;;;;;;20.66;43.22;99153.09;5050125;28;20039;-73
2023/04/30 08:16:17;;;;;;;20.95;11.23;;;;;;;20.70;43.16;99148.22;5037783;28;20036;-70
2023/04/30 08:18:45;;;;;;;13.93;5.85;;;;;;;20.81;42.75;99148.19;5041221;28;20025;-71
2023/04/30 08:21:14;;;;;;;8.93;6.00;;;;;;;20.82;43.46;99143.34;5048530;28;20099;-71
2023/04/30 08:23:40;;;;;;;19.67;9.18;;;;;;;21.04;42.03;99138.34;5042745;28;20464;-74
2023/04/30 08:26:05;;;;;;;10.30;6.13;;;;;;;20.21;40.99;99136.59;5042416;28;20028;-71
2023/04/30 08:28:31;;;;;;;9.73;6.55;;;;;;;20.11;41.26;99132.59;5060241;28;20116;-70
2023/04/30 08:30:56;;;;;;;5.68;4.57;;;;;;;20.62;40.94;99138.09;5048406;28;20094;-68
2023/04/30 08:33:22;;;;;;;13.02;6.93;;;;;;;20.66;40.56;99138.88;5052336;28;20407;-75
2023/04/30 08:35:47;;;;;;;7.25;4.70;;;;;;;20.34;39.49;99131.31;5037394;28;20106;-74
2023/04/30 08:38:13;;;;;;;10.63;4.93;;;;;;;19.88;41.38;99130.97;5041940;28;20017;-76
2023/04/30 08:40:39;;;;;;;8.93;4.13;;;;;;;20.51;39.70;99123.13;5031802;28;20021;-76
2023/04/30 08:43:06;;;;;;;7.90;4.35;;;;;;;20.95;39.25;99118.91;5045942;28;20512;-73
2023/04/30 08:45:32;;;;;;;8.30;4.63;;;;;;;21.36;38.06;99123.13;5039527;28;20029;-73
2023/04/30 08:47:59;;;;;;;5.25;3.85;;;;;;;21.33;37.32;99118.25;5031779;28;20398;-74
2023/04/30 08:50:28;;;;;;;7.00;3.85;;;;;;;21.78;36.19;99123.22;5043926;28;20415;-74
2023/04/30 08:52:53;;;;;;;9.25;4.25;;;;;;;22.18;36.56;99117.09;5036267;28;20097;-72
2023/04/30 08:55:19;;;;;;;8.18;3.60;;;;;;;21.77;36.47;99110.19;5037537;28;20103;-70
2023/04/30 08:57:45;;;;;;;6.38;3.88;;;;;;;21.96;35.52;99117.34;5052651;28;20013;-76
2023/04/30 09:00:11;;;;;;;31.98;22.10;;;;;;;21.24;36.95;99115.88;5042264;28;20033;-74
2023/04/30 09:02:41;;;;;;;8.88;6.43;;;;;;;21.45;36.50;99100.66;5054416;28;20094;-72
2023/04/30 09:05:14;;;;;;;5.45;4.93;;;;;;;21.52;37.02;99104.69;5042538;28;20028;-76
2023/04/30 09:07:42;;;;;;;17.92;10.70;;;;;;;21.36;35.46;99108.06;5049610;28;20438;-74
2023/04/30 09:10:21;;;;;;;8.38;4.68;;;;;;;21.15;36.34;99109.81;5033296;28;20021;-73
2023/04/30 09:13:04;;;;;;;8.40;5.30;;;;;;;21.12;35.81;99107.81;5036142;28;20052;-73
2023/04/30 09:15:31;;;;;;;6.63;3.85;;;;;;;21.27;35.54;99100.00;5031302;28;20175;-73
2023/04/30 09:18:17;;;;;;;8.75;4.35;;;;;;;21.52;36.43;99104.69;5044690;28;20036;-71
2023/04/30 09:21:02;;;;;;;9.43;4.22;;;;;;;21.40;36.46;99103.16;5046397;28;20110;-74
2023/04/30 09:23:28;;;;;;;8.07;4.28;;;;;;;21.70;35.40;99098.88;5030141;28;20041;-74
2023/04/30 09:25:55;;;;;;;6.57;3.53;;;;;;;21.49;36.38;99102.69;5040042;28;20032;-74
2023/04/30 09:28:26;;;;;;;8.60;4.65;;;;;;;21.40;37.41;99101.13;5048344;28;20120;-73
2023/04/30 09:30:52;;;;;;;11.35;4.72;;;;;;;21.23;37.15;99093.53;5032143;28;21416;-71
2023/04/30 09:33:19;;;;;;;5.70;4.18;;;;;;;21.07;37.29;99092.00;5035355;28;20033;-75
2023/04/30 09:35:45;;;;;;;10.93;4.90;;;;;;;20.20;36.95;99083.88;5029317;28;20049;-72
2023/04/30 09:38:31;;;;;;;10.50;3.88;;;;;;;20.23;37.53;99091.56;5032918;28;20075;-71
2023/04/30 09:41:00;;;;;;;7.18;4.00;;;;;;;20.49;37.19;99089.44;5041954;28;20478;-74
2023/04/30 09:43:27;;;;;;;4.47;3.60;;;;;;;20.27;37.98;99080.22;5033924;28;20432;-75
2023/04/30 09:45:53;;;;;;;54.53;6.53;;;;;;;20.42;38.45;99086.66;5040431;28;20063;-76
2023/04/30 09:48:22;;;;;;;11.30;4.00;;;;;;;20.45;38.14;99082.97;5038727;28;20045;-73
2023/04/30 09:50:48;;;;;;;5.53;3.70;;;;;;;20.90;38.08;99080.34;5035468;28;20029;-70
2023/04/30 09:53:16;;;;;;;4.88;3.58;;;;;;;21.28;37.17;99068.28;5039900;28;20551;-71
2023/04/30 09:55:47;;;;;;;6.65;3.85;;;;;;;21.30;35.84;99062.19;5038783;28;20491;-73
2023/04/30 09:58:13;;;;;;;7.85;4.15;;;;;;;21.87;37.86;99075.13;5035740;28;20404;-72
2023/04/30 10:00:41;;;;;;;7.13;3.83;;;;;;;22.47;35.80;99071.22;5038642;28;20033;-73
2023/04/30 10:03:08;;;;;;;7.65;5.28;;;;;;;22.06;35.67;99075.75;5033220;28;20025;-74
2023/04/30 10:05:41;;;;;;;9.77;4.40;;;;;;;21.67;35.13;99074.13;5030702;28;20378;-74
2023/04/30 10:08:12;;;;;;;6.60;3.83;;;;;;;21.48;35.64;99066.91;5044819;28;20029;-74
2023/04/30 10:10:41;;;;;;;7.07;4.03;;;;;;;21.68;35.30;99072.88;5032671;28;20087;-73
2023/04/30 10:13:13;;;;;;;10.73;4.20;;;;;;;21.91;35.63;99063.69;5030744;28;20028;-73
2023/04/30 10:15:44;;;;;;;17.77;4.18;;;;;;;21.32;36.36;99060.56;5032579;28;20116;-73
2023/04/30 10:18:20;;;;;;;4.70;3.78;;;;;;;21.28;36.66;99061.81;5030230;28;20018;-73
2023/04/30 10:20:49;;;;;;;6.50;4.07;;;;;;;21.66;36.43;99067.59;5044241;28;20021;-73
2023/04/30 10:23:15;;;;;;;6.35;4.55;;;;;;;21.85;36.04;99062.56;5048942;28;20023;-73
2023/04/30 10:25:42;;;;;;;5.63;3.47;;;;;;;21.80;35.52;99063.00;5048533;28;20144;-73
2023/04/30 10:28:08;;;;;;;7.03;4.25;;;;;;;21.67;36.25;99068.44;5041056;28;20020;-73
2023/04/30 10:30:37;;;;;;;4.97;4.13;;;;;;;21.53;35.70;99072.97;5032032;28;20033;-73
2023/04/30 10:33:36;;;;;;;5.57;3.20;;;;;;;21.63;35.31;99057.03;5033369;28;20482;-73
2023/04/30 10:36:11;;;;;;;5.73;4.13;;;;;;;21.68;35.55;99053.75;5029708;28;20021;-73
2023/04/30 10:38:37;;;;;;;5.30;3.53;;;;;;;21.95;34.09;99055.13;5034526;28;20021;-73
2023/04/30 10:41:06;;;;;;;4.75;4.10;;;;;;;22.48;32.62;99052.06;5035344;28;20025;-73
2023/04/30 10:43:34;;;;;;;7.30;3.67;;;;;;;23.20;31.80;99042.50;5050688;28;20545;-73
2023/04/30 10:46:01;;;;;;;5.22;3.90;;;;;;;23.39;31.45;99043.84;5041374;28;20459;-73
2023/04/30 10:48:29;;;;;;;4.82;3.95;;;;;;;23.33;31.06;99045.59;5031449;28;20036;-74
2023/04/30 10:50:58;;;;;;;9.85;6.30;;;;;;;23.52;29.96;99038.31;5046941;28;20025;-74
2023/04/30 10:53:26;;;;;;;4.10;3.23;;;;;;;23.67;29.49;99024.63;5058153;28;20017;-74
2023/04/30 10:56:07;;;;;;;5.43;3.05;;;;;;;23.95;29.10;99022.44;5052131;28;20596;-74
2023/04/30 10:58:39;;;;;;;7.10;3.65;;;;;;;24.25;29.55;99026.38;5069425;28;20103;-74
2023/04/30 11:01:08;;;;;;;4.90;2.75;;;;;;;23.85;29.32;99020.59;5050689;28;20021;-74
2023/04/30 11:03:34;;;;;;;4.65;2.78;;;;;;;24.31;29.92;99025.84;5051179;28;20048;-73
2023/04/30 11:06:06;;;;;;;4.82;2.90;;;;;;;23.56;30.24;99021.94;5042015;28;20495;-73
2023/04/30 11:08:42;;;;;;;4.68;3.10;;;;;;;23.48;29.48;99025.34;5052834;28;20410;-74
2023/04/30 11:11:08;;;;;;;6.32;3.63;;;;;;;23.46;29.47;99019.28;5055274;28;20025;-73
2023/04/30 11:13:42;;;;;;;3.97;2.75;;;;;;;23.80;28.82;99026.81;5051450;28;20090;-73
2023/04/30 11:16:08;;;;;;;5.47;2.72;;;;;;;22.92;29.29;99021.75;5037203;28;20408;-73
2023/04/30 11:18:40;;;;;;;3.42;2.42;;;;;;;22.56;30.79;99023.09;5037262;28;20021;-73
2023/04/30 11:21:07;;;;;;;4.00;3.25;;;;;;;21.99;30.68;99024.56;5056372;28;20034;-73
2023/04/30 11:23:33;;;;;;;4.55;2.70;;;;;;;22.30;31.37;99022.56;5038735;28;20026;-73
2023/04/30 11:25:59;;;;;;;3.33;2.90;;;;;;;22.65;31.34;99016.03;5048975;28;20071;-73